createdAt,value
2018-06-24T00:00:28.186Z,17.37
2018-06-24T00:04:31.726Z,17.34
2018-06-24T00:08:35.201Z,17.30
2018-06-24T00:12:38.682Z,17.26
2018-06-24T00:16:42.147Z,17.20
2018-06-24T00:20:45.585Z,17.12
2018-06-24T00:24:58.251Z,17.06
2018-06-24T00:29:10.559Z,17.01
2018-06-24T00:33:22.916Z,16.92
2018-06-24T00:37:35.219Z,16.85
2018-06-24T00:41:47.612Z,16.81
2018-06-24T00:45:59.989Z,16.72
2018-06-24T00:50:12.305Z,16.66
2018-06-24T00:54:24.678Z,16.59
2018-06-24T00:58:37.102Z,16.50
2018-06-24T01:02:49.421Z,16.46
2018-06-24T01:06:52.898Z,16.46
2018-06-24T01:10:56.385Z,16.47
2018-06-24T01:15:00.096Z,16.45
2018-06-24T01:19:03.546Z,16.41
2018-06-24T01:23:06.994Z,16.40
2018-06-24T01:27:10.467Z,16.35
2018-06-24T01:31:13.869Z,16.30
2018-06-24T01:35:17.349Z,16.29
2018-06-24T01:39:20.789Z,16.29
2018-06-24T01:43:24.244Z,16.27
2018-06-24T01:47:27.699Z,16.23
2018-06-24T01:51:31.358Z,16.24
2018-06-24T01:55:35.333Z,16.24
2018-06-24T01:59:39.141Z,16.21
2018-06-24T02:03:51.461Z,16.23
2018-06-24T02:08:03.862Z,16.21
2018-06-24T02:12:07.634Z,16.23
2018-06-24T02:16:11.134Z,16.21
2018-06-24T02:20:14.823Z,16.13
2018-06-24T02:24:18.308Z,16.06
2018-06-24T02:28:22.659Z,16.02
2018-06-24T02:32:27.446Z,16.02
2018-06-24T02:36:31.303Z,16.00
2018-06-24T02:40:34.959Z,15.96
2018-06-24T02:44:38.381Z,15.91
2018-06-24T02:48:41.891Z,15.86
2018-06-24T02:52:45.895Z,15.81
2018-06-24T02:56:49.563Z,15.79
2018-06-24T03:00:53.020Z,15.79
2018-06-24T03:04:56.527Z,15.80
2018-06-24T03:09:00.443Z,15.80
2018-06-24T03:13:03.951Z,15.81
2018-06-24T03:17:07.434Z,15.83
2018-06-24T03:21:10.839Z,15.80
2018-06-24T03:25:14.261Z,15.84
2018-06-24T03:29:17.674Z,15.87
2018-06-24T03:33:21.082Z,15.89
2018-06-24T03:37:24.524Z,15.89
2018-06-24T03:41:27.969Z,15.89
2018-06-24T03:45:31.418Z,15.90
2018-06-24T03:49:34.831Z,15.92
2018-06-24T03:53:38.316Z,15.95
2018-06-24T03:57:41.856Z,15.99
2018-06-24T04:01:45.609Z,15.99
2018-06-24T04:05:49.190Z,16.02
2018-06-24T04:09:52.697Z,16.07
2018-06-24T04:13:56.211Z,16.07
2018-06-24T04:18:00.590Z,16.04
2018-06-24T04:22:04.035Z,16.06
2018-06-24T04:26:08.519Z,16.07
2018-06-24T04:30:11.943Z,16.04
2018-06-24T04:34:15.452Z,16.06
2018-06-24T04:38:18.914Z,16.07
2018-06-24T04:42:22.357Z,16.08
2018-06-24T04:46:25.814Z,16.13
2018-06-24T04:50:29.223Z,16.17
2018-06-24T04:54:32.682Z,16.22
2018-06-24T04:58:36.155Z,16.24
2018-06-24T05:02:39.598Z,16.29
2018-06-24T05:06:43.077Z,16.33
2018-06-24T05:10:46.620Z,16.37
2018-06-24T05:14:50.215Z,16.45
2018-06-24T05:18:54.266Z,16.53
2018-06-24T05:22:57.748Z,16.61
2018-06-24T05:27:10.094Z,16.63
2018-06-24T05:31:22.445Z,16.65
2018-06-24T05:35:34.740Z,16.69
2018-06-24T05:39:47.083Z,16.76
2018-06-24T05:43:59.409Z,16.79
2018-06-24T05:48:11.741Z,16.83
2018-06-24T05:52:24.046Z,16.86
2018-06-24T05:56:37.411Z,16.84
2018-06-24T06:00:49.827Z,16.86
2018-06-24T06:05:02.144Z,16.90
2018-06-24T06:09:14.509Z,16.87
2018-06-24T06:13:26.823Z,16.85
2018-06-24T06:17:39.152Z,16.83
2018-06-24T06:21:51.654Z,16.79
2018-06-24T06:26:03.958Z,16.79
2018-06-24T06:30:08.038Z,16.84
2018-06-24T06:34:11.533Z,16.87
2018-06-24T06:38:14.997Z,16.91
2018-06-24T06:42:18.431Z,16.99
2018-06-24T06:46:21.952Z,17.06
2018-06-24T06:50:25.421Z,17.05
2018-06-24T06:54:28.961Z,16.99
2018-06-24T06:58:32.532Z,16.93
2018-06-24T07:02:36.072Z,17.11
2018-06-24T07:06:39.581Z,17.26
2018-06-24T07:10:43.062Z,17.57
2018-06-24T07:14:46.517Z,17.81
2018-06-24T07:18:49.979Z,17.80
2018-06-24T07:22:53.590Z,17.79
2018-06-24T07:26:57.030Z,17.79
2018-06-24T07:31:00.634Z,17.85
2018-06-24T07:35:04.217Z,17.98
2018-06-24T07:39:09.496Z,18.10
2018-06-24T07:43:14.037Z,18.21
2018-06-24T07:47:17.474Z,18.34
2018-06-24T07:51:31.706Z,18.44
2018-06-24T07:55:39.331Z,18.46
2018-06-24T07:59:47.101Z,18.57
2018-06-24T08:04:08.098Z,18.65
2018-06-24T08:08:15.733Z,18.64
2018-06-24T08:12:23.409Z,18.71
2018-06-24T08:16:31.000Z,18.75
2018-06-24T08:20:38.621Z,18.78
2018-06-24T08:24:46.330Z,18.79
2018-06-24T08:28:53.916Z,18.83
2018-06-24T08:33:02.567Z,18.74
2018-06-24T08:37:10.226Z,18.68
2018-06-24T08:41:14.185Z,18.73
2018-06-24T08:45:21.841Z,18.87
2018-06-24T08:49:30.167Z,18.98
2018-06-24T08:53:37.765Z,19.06
2018-06-24T08:57:45.402Z,19.07
2018-06-24T09:01:52.982Z,19.17
2018-06-24T09:06:00.771Z,19.26
2018-06-24T09:10:08.382Z,19.32
2018-06-24T09:14:16.017Z,19.29
2018-06-24T09:18:23.598Z,19.31
2018-06-24T09:22:31.159Z,19.35
2018-06-24T09:26:38.730Z,19.33
2018-06-24T09:30:46.425Z,19.43
2018-06-24T09:34:54.235Z,19.52
2018-06-24T09:39:01.958Z,19.43
2018-06-24T09:43:09.807Z,19.36
2018-06-24T09:47:17.426Z,19.32
2018-06-24T09:51:24.979Z,19.31
2018-06-24T09:55:32.709Z,19.49
2018-06-24T09:59:40.652Z,19.69
2018-06-24T10:03:48.354Z,19.79
2018-06-24T10:07:55.930Z,19.75
2018-06-24T10:12:03.794Z,19.71
2018-06-24T10:16:11.406Z,19.77
2018-06-24T10:20:18.997Z,19.78
2018-06-24T10:24:26.562Z,19.67
2018-06-24T10:28:34.201Z,19.71
2018-06-24T10:32:41.827Z,19.88
2018-06-24T10:36:49.405Z,20.06
2018-06-24T10:40:57.342Z,20.18
2018-06-24T10:45:04.916Z,20.20
2018-06-24T10:49:12.494Z,20.23
2018-06-24T10:53:20.059Z,20.19
2018-06-24T10:57:27.717Z,20.13
2018-06-24T11:01:35.395Z,20.09
2018-06-24T11:05:43.033Z,20.11
2018-06-24T11:09:50.727Z,20.13
2018-06-24T11:13:58.255Z,20.27
2018-06-24T11:18:05.946Z,20.30
2018-06-24T11:22:13.563Z,20.20
2018-06-24T11:26:21.155Z,20.13
2018-06-24T11:30:28.776Z,20.01
2018-06-24T11:34:36.391Z,19.79
2018-06-24T11:38:44.003Z,19.71
2018-06-24T11:42:52.739Z,19.73
2018-06-24T11:47:00.342Z,19.84
2018-06-24T11:51:07.969Z,19.94
2018-06-24T11:55:15.651Z,20.12
2018-06-24T11:59:23.311Z,20.29
2018-06-24T12:03:30.977Z,20.48
2018-06-24T12:07:38.692Z,20.72
2018-06-24T12:11:46.302Z,20.78
2018-06-24T12:15:53.976Z,20.90
2018-06-24T12:20:01.594Z,21.03
2018-06-24T12:24:09.550Z,21.14
2018-06-24T12:28:17.178Z,21.27
2018-06-24T12:32:24.748Z,21.38
2018-06-24T12:36:43.530Z,21.59
2018-06-24T12:40:51.108Z,21.66
2018-06-24T12:44:58.758Z,21.62
2018-06-24T12:49:06.436Z,21.57
2018-06-24T12:53:14.081Z,21.57
2018-06-24T12:57:21.647Z,21.60
2018-06-24T13:01:29.277Z,21.53
2018-06-24T13:05:36.885Z,21.49
2018-06-24T13:09:44.465Z,21.39
2018-06-24T13:13:52.063Z,21.34
2018-06-24T13:17:59.672Z,21.33
2018-06-24T13:22:07.229Z,21.30
2018-06-24T13:26:14.827Z,21.23
2018-06-24T13:30:22.457Z,21.02
2018-06-24T13:34:30.126Z,20.81
2018-06-24T13:38:37.802Z,20.69
2018-06-24T13:42:45.432Z,20.63
2018-06-24T13:46:53.063Z,20.59
2018-06-24T13:51:00.711Z,20.54
2018-06-24T13:59:42.533Z,20.51
2018-06-24T14:03:50.150Z,20.50
2018-06-24T14:07:57.755Z,20.53
2018-06-24T14:12:05.601Z,20.47
2018-06-24T14:16:13.302Z,20.50
2018-06-24T14:20:21.043Z,20.54
2018-06-24T14:24:28.982Z,20.55
2018-06-24T14:33:32.262Z,20.53
2018-06-24T14:37:40.352Z,20.59
2018-06-24T14:41:49.098Z,20.62
2018-06-24T14:45:58.568Z,20.68
2018-06-24T14:50:08.659Z,20.80
2018-06-24T14:54:19.006Z,20.90
2018-06-24T14:58:29.609Z,20.97
2018-06-24T15:02:39.443Z,21.01
2018-06-24T15:06:51.627Z,21.13
2018-06-24T15:11:03.909Z,21.17
2018-06-24T15:15:14.048Z,21.22
2018-06-24T15:19:24.533Z,21.27
2018-06-24T15:23:33.467Z,21.29
2018-06-24T15:27:42.999Z,21.26
2018-06-24T15:31:51.819Z,21.25
2018-06-24T15:36:00.575Z,21.27
2018-06-24T15:40:11.520Z,21.40
2018-06-24T15:44:24.599Z,21.52
2018-06-24T15:48:33.971Z,21.53
2018-06-24T15:52:43.387Z,21.54
2018-06-24T15:56:53.355Z,21.50
2018-06-24T16:01:03.100Z,21.47
2018-06-24T16:05:14.342Z,21.48
2018-06-24T16:09:25.881Z,21.50
2018-06-24T16:13:36.701Z,21.53
2018-06-24T16:17:46.279Z,21.56
2018-06-24T16:21:54.529Z,21.58
2018-06-24T16:26:03.111Z,21.55
2018-06-24T16:30:11.705Z,21.51
2018-06-24T16:34:20.905Z,21.49
2018-06-24T16:38:29.688Z,21.52
2018-06-24T16:42:38.479Z,21.54
2018-06-24T16:46:47.557Z,21.52
2018-06-24T16:55:20.196Z,21.50
2018-06-24T16:59:33.725Z,21.51
2018-06-24T17:03:43.874Z,21.50
2018-06-24T17:07:53.707Z,21.47
2018-06-24T17:12:03.143Z,21.40
2018-06-24T17:20:27.966Z,21.36
2018-06-24T17:24:52.002Z,21.33
2018-06-24T17:29:13.703Z,21.27
2018-06-24T17:33:25.254Z,21.28
2018-06-24T17:37:30.685Z,21.33
2018-06-24T17:41:47.683Z,21.35
2018-06-24T17:46:00.162Z,21.35
2018-06-24T17:50:06.234Z,21.29
2018-06-24T17:54:11.164Z,21.17
2018-06-24T17:58:23.870Z,21.15
2018-06-24T18:02:28.399Z,21.16
2018-06-24T18:15:10.900Z,21.11
2018-06-24T18:19:18.971Z,21.12
2018-06-24T18:23:24.650Z,21.13
2018-06-24T18:27:37.956Z,21.11
2018-06-24T18:31:45.155Z,21.11
2018-06-24T18:35:58.888Z,21.11
2018-06-24T18:40:08.446Z,21.13
2018-06-24T18:45:46.958Z,21.16
2018-06-24T18:49:55.730Z,21.15
2018-06-24T18:54:04.783Z,21.11
2018-06-24T18:58:14.210Z,21.04
2018-06-24T19:02:19.774Z,20.98
2018-06-24T19:06:26.755Z,20.93
2018-06-24T19:10:37.080Z,20.88
2018-06-24T19:19:01.477Z,20.74
2018-06-24T19:23:12.121Z,20.67
2018-06-24T19:27:27.982Z,20.59
2018-06-24T19:31:33.342Z,20.50
2018-06-24T19:35:40.194Z,20.43
2018-06-24T19:40:00.984Z,20.33
2018-06-24T19:44:08.151Z,20.22
2018-06-24T19:48:16.601Z,20.15
2018-06-24T19:52:22.258Z,20.17
2018-06-24T19:56:27.437Z,20.03
2018-06-24T20:00:33.962Z,19.93
2018-06-24T20:04:39.834Z,19.84
2018-06-24T20:08:45.224Z,19.78
2018-06-24T20:12:50.431Z,19.71
2018-06-24T20:16:56.332Z,19.63
2018-06-24T20:21:02.003Z,19.59
2018-06-24T20:25:08.490Z,19.49
2018-06-24T20:29:12.924Z,19.42
2018-06-24T20:33:19.911Z,19.36
2018-06-24T20:37:25.216Z,19.33
2018-06-24T20:41:32.312Z,19.31
2018-06-24T20:45:37.615Z,19.28
2018-06-24T20:49:42.898Z,19.25
2018-06-24T20:53:50.704Z,19.21
2018-06-24T20:57:55.921Z,19.17
2018-06-24T21:02:01.934Z,19.11
2018-06-24T21:06:12.724Z,19.10
2018-06-24T21:10:18.282Z,19.08
2018-06-24T21:14:22.851Z,19.04
2018-06-24T21:18:27.606Z,19.03
2018-06-24T21:22:32.364Z,19.03
2018-06-24T21:26:37.680Z,19.01
2018-06-24T21:30:43.407Z,19.01
2018-06-24T21:34:47.704Z,19.01
2018-06-24T21:38:53.461Z,18.97
2018-06-24T21:42:57.528Z,18.88
2018-06-24T21:47:02.549Z,18.84
2018-06-24T21:51:06.630Z,18.82
2018-06-24T21:55:10.764Z,18.84
2018-06-24T21:59:15.988Z,18.87
2018-06-24T22:03:22.745Z,18.89
2018-06-24T22:07:27.673Z,18.93
2018-06-24T22:11:31.630Z,18.97
2018-06-24T22:15:36.297Z,18.97
2018-06-24T22:19:41.784Z,18.97
2018-06-24T22:23:48.107Z,18.96
2018-06-24T22:27:55.598Z,18.95
2018-06-24T22:32:02.174Z,18.94
2018-06-24T22:36:06.957Z,18.85
2018-06-24T22:40:11.796Z,18.79
2018-06-24T22:44:15.786Z,18.78
2018-06-24T22:48:21.822Z,18.77
2018-06-24T22:52:26.916Z,18.78
2018-06-24T22:56:33.242Z,18.77
2018-06-24T23:00:38.224Z,18.76
2018-06-24T23:04:44.854Z,18.72
2018-06-24T23:08:52.146Z,18.66
2018-06-24T23:12:58.085Z,18.64
2018-06-24T23:17:03.150Z,18.59
2018-06-24T23:21:09.514Z,18.55
2018-06-24T23:25:14.463Z,18.51
2018-06-24T23:29:19.098Z,18.44
2018-06-24T23:33:27.247Z,18.32
2018-06-24T23:37:31.737Z,18.25
2018-06-24T23:41:35.939Z,18.22
2018-06-24T23:45:43.038Z,18.20
2018-06-24T23:49:48.957Z,18.16
2018-06-24T23:53:53.173Z,18.10
2018-06-24T23:57:57.273Z,18.00
